sensor_id;sensor_type;location;lat;lon;timestamp;P1;durP1;ratioP1;P2;durP2;ratioP2
6013;SDS011;3035;49.928;8.410;2023-05-10T00:01:34;2.40;;;0.80;;
6013;SDS011;3035;49.928;8.410;2023-05-10T00:04:03;7.80;;;0.80;;
6013;SDS011;3035;49.928;8.410;2023-05-10T00:06:32;1.67;;;0.70;;
6013;SDS011;3035;49.928;8.410;2023-05-10T00:09:00;2.20;;;0.80;;
6013;SDS011;3035;49.928;8.410;2023-05-10T00:11:28;0.77;;;0.70;;
6013;SDS011;3035;49.928;8.410;2023-05-10T00:13:58;3.47;;;0.80;;
6013;SDS011;3035;49.928;8.410;2023-05-10T00:16:26;2.40;;;0.93;;
6013;SDS011;3035;49.928;8.410;2023-05-10T00:18:54;7.87;;;1.73;;
6013;SDS011;3035;49.928;8.410;2023-05-10T00:21:22;2.60;;;0.80;;
6013;SDS011;3035;49.928;8.410;2023-05-10T00:23:51;3.23;;;0.70;;
6013;SDS011;3035;49.928;8.410;2023-05-10T00:26:20;4.50;;;0.90;;
6013;SDS011;3035;49.928;8.410;2023-05-10T00:28:48;4.10;;;0.70;;
6013;SDS011;3035;49.928;8.410;2023-05-10T00:31:17;1.73;;;0.80;;
6013;SDS011;3035;49.928;8.410;2023-05-10T00:33:45;1.10;;;0.80;;
6013;SDS011;3035;49.928;8.410;2023-05-10T00:36:14;1.30;;;0.77;;
6013;SDS011;3035;49.928;8.410;2023-05-10T00:38:42;0.70;;;0.60;;
6013;SDS011;3035;49.928;8.410;2023-05-10T00:41:11;3.70;;;0.80;;
6013;SDS011;3035;49.928;8.410;2023-05-10T00:43:39;0.80;;;0.70;;
6013;SDS011;3035;49.928;8.410;2023-05-10T00:46:07;0.80;;;0.70;;
6013;SDS011;3035;49.928;8.410;2023-05-10T00:48:35;2.57;;;0.77;;
6013;SDS011;3035;49.928;8.410;2023-05-10T00:51:04;7.63;;;1.03;;
6013;SDS011;3035;49.928;8.410;2023-05-10T00:53:32;2.13;;;0.90;;
6013;SDS011;3035;49.928;8.410;2023-05-10T00:56:01;1.00;;;0.73;;
6013;SDS011;3035;49.928;8.410;2023-05-10T00:58:29;1.20;;;0.70;;
6013;SDS011;3035;49.928;8.410;2023-05-10T01:00:58;0.70;;;0.70;;
6013;SDS011;3035;49.928;8.410;2023-05-10T01:03:27;0.90;;;0.70;;
6013;SDS011;3035;49.928;8.410;2023-05-10T01:05:55;0.90;;;0.87;;
6013;SDS011;3035;49.928;8.410;2023-05-10T01:08:24;1.93;;;0.90;;
6013;SDS011;3035;49.928;8.410;2023-05-10T01:10:52;0.80;;;0.80;;
6013;SDS011;3035;49.928;8.410;2023-05-10T01:13:26;2.67;;;1.00;;
6013;SDS011;3035;49.928;8.410;2023-05-10T01:16:02;1.57;;;0.80;;
6013;SDS011;3035;49.928;8.410;2023-05-10T01:18:31;11.23;;;1.00;;
6013;SDS011;3035;49.928;8.410;2023-05-10T01:21:04;1.00;;;0.80;;
6013;SDS011;3035;49.928;8.410;2023-05-10T01:23:45;0.83;;;0.70;;
6013;SDS011;3035;49.928;8.410;2023-05-10T01:26:37;1.37;;;0.70;;
6013;SDS011;3035;49.928;8.410;2023-05-10T01:32:10;3.53;;;0.73;;
6013;SDS011;3035;49.928;8.410;2023-05-10T01:34:54;4.93;;;0.80;;
6013;SDS011;3035;49.928;8.410;2023-05-10T01:37:26;5.17;;;0.70;;
6013;SDS011;3035;49.928;8.410;2023-05-10T01:39:55;1.03;;;0.70;;
6013;SDS011;3035;49.928;8.410;2023-05-10T01:42:25;6.63;;;0.70;;
6013;SDS011;3035;49.928;8.410;2023-05-10T01:44:55;9.53;;;0.80;;
6013;SDS011;3035;49.928;8.410;2023-05-10T01:47:26;7.90;;;0.80;;
6013;SDS011;3035;49.928;8.410;2023-05-10T01:49:54;5.70;;;0.90;;
6013;SDS011;3035;49.928;8.410;2023-05-10T01:52:25;0.77;;;0.77;;
6013;SDS011;3035;49.928;8.410;2023-05-10T01:54:55;9.77;;;1.87;;
6013;SDS011;3035;49.928;8.410;2023-05-10T01:57:24;1.77;;;0.73;;
6013;SDS011;3035;49.928;8.410;2023-05-10T01:59:51;0.73;;;0.73;;
6013;SDS011;3035;49.928;8.410;2023-05-10T02:02:20;0.93;;;0.70;;
6013;SDS011;3035;49.928;8.410;2023-05-10T02:04:49;0.70;;;0.70;;
6013;SDS011;3035;49.928;8.410;2023-05-10T02:07:17;1.77;;;0.73;;
6013;SDS011;3035;49.928;8.410;2023-05-10T02:09:45;0.83;;;0.80;;
6013;SDS011;3035;49.928;8.410;2023-05-10T02:12:15;0.80;;;0.80;;
6013;SDS011;3035;49.928;8.410;2023-05-10T02:14:43;2.93;;;0.70;;
6013;SDS011;3035;49.928;8.410;2023-05-10T02:17:12;0.93;;;0.80;;
6013;SDS011;3035;49.928;8.410;2023-05-10T02:19:40;0.97;;;0.80;;
6013;SDS011;3035;49.928;8.410;2023-05-10T02:22:08;2.83;;;0.80;;
6013;SDS011;3035;49.928;8.410;2023-05-10T02:24:36;3.30;;;0.93;;
6013;SDS011;3035;49.928;8.410;2023-05-10T02:27:04;0.80;;;0.80;;
6013;SDS011;3035;49.928;8.410;2023-05-10T02:29:33;3.10;;;0.93;;
6013;SDS011;3035;49.928;8.410;2023-05-10T02:32:02;0.80;;;0.80;;
6013;SDS011;3035;49.928;8.410;2023-05-10T02:34:30;0.83;;;0.83;;
6013;SDS011;3035;49.928;8.410;2023-05-10T02:36:59;4.93;;;0.90;;
6013;SDS011;3035;49.928;8.410;2023-05-10T02:39:27;2.40;;;1.00;;
6013;SDS011;3035;49.928;8.410;2023-05-10T02:41:55;3.47;;;0.90;;
6013;SDS011;3035;49.928;8.410;2023-05-10T02:44:23;3.43;;;0.77;;
6013;SDS011;3035;49.928;8.410;2023-05-10T02:46:52;0.80;;;0.70;;
6013;SDS011;3035;49.928;8.410;2023-05-10T02:49:21;1.00;;;0.90;;
6013;SDS011;3035;49.928;8.410;2023-05-10T02:51:51;0.80;;;0.80;;
6013;SDS011;3035;49.928;8.410;2023-05-10T02:54:19;0.83;;;0.80;;
6013;SDS011;3035;49.928;8.410;2023-05-10T02:56:47;0.90;;;0.90;;
6013;SDS011;3035;49.928;8.410;2023-05-10T02:59:16;9.60;;;1.00;;
6013;SDS011;3035;49.928;8.410;2023-05-10T03:01:44;16.90;;;0.90;;
6013;SDS011;3035;49.928;8.410;2023-05-10T03:04:13;1.27;;;0.90;;
6013;SDS011;3035;49.928;8.410;2023-05-10T03:06:41;2.20;;;0.80;;
6013;SDS011;3035;49.928;8.410;2023-05-10T03:09:09;2.60;;;0.80;;
6013;SDS011;3035;49.928;8.410;2023-05-10T03:20:06;2.57;;;0.90;;
6013;SDS011;3035;49.928;8.410;2023-05-10T03:22:38;3.47;;;0.80;;
6013;SDS011;3035;49.928;8.410;2023-05-10T03:25:07;1.10;;;1.00;;
6013;SDS011;3035;49.928;8.410;2023-05-10T03:27:35;16.20;;;1.10;;
6013;SDS011;3035;49.928;8.410;2023-05-10T03:30:03;1.13;;;0.80;;
6013;SDS011;3035;49.928;8.410;2023-05-10T03:32:34;1.00;;;0.80;;
6013;SDS011;3035;49.928;8.410;2023-05-10T03:35:07;0.80;;;0.80;;
6013;SDS011;3035;49.928;8.410;2023-05-10T03:37:35;2.50;;;1.20;;
6013;SDS011;3035;49.928;8.410;2023-05-10T03:40:04;1.20;;;1.10;;
6013;SDS011;3035;49.928;8.410;2023-05-10T03:42:34;3.03;;;1.00;;
6013;SDS011;3035;49.928;8.410;2023-05-10T03:45:02;2.77;;;0.90;;
6013;SDS011;3035;49.928;8.410;2023-05-10T03:47:31;1.20;;;1.10;;
6013;SDS011;3035;49.928;8.410;2023-05-10T03:50:00;0.90;;;0.90;;
6013;SDS011;3035;49.928;8.410;2023-05-10T03:52:29;10.70;;;1.13;;
6013;SDS011;3035;49.928;8.410;2023-05-10T03:54:57;3.90;;;1.10;;
6013;SDS011;3035;49.928;8.410;2023-05-10T03:57:26;5.07;;;1.00;;
6013;SDS011;3035;49.928;8.410;2023-05-10T03:59:55;2.13;;;1.00;;
6013;SDS011;3035;49.928;8.410;2023-05-10T04:02:23;1.10;;;1.00;;
6013;SDS011;3035;49.928;8.410;2023-05-10T04:04:51;6.63;;;1.10;;
6013;SDS011;3035;49.928;8.410;2023-05-10T04:07:21;6.90;;;1.03;;
6013;SDS011;3035;49.928;8.410;2023-05-10T04:09:49;1.00;;;0.90;;
6013;SDS011;3035;49.928;8.410;2023-05-10T04:12:18;7.93;;;1.07;;
6013;SDS011;3035;49.928;8.410;2023-05-10T04:14:46;1.20;;;1.10;;
6013;SDS011;3035;49.928;8.410;2023-05-10T04:17:15;2.33;;;1.20;;
6013;SDS011;3035;49.928;8.410;2023-05-10T04:19:44;4.00;;;1.30;;
6013;SDS011;3035;49.928;8.410;2023-05-10T04:22:13;1.40;;;1.30;;
6013;SDS011;3035;49.928;8.410;2023-05-10T04:24:41;6.40;;;1.30;;
6013;SDS011;3035;49.928;8.410;2023-05-10T04:27:10;2.17;;;1.40;;
6013;SDS011;3035;49.928;8.410;2023-05-10T04:29:38;5.43;;;1.37;;
6013;SDS011;3035;49.928;8.410;2023-05-10T04:32:07;2.50;;;1.00;;
6013;SDS011;3035;49.928;8.410;2023-05-10T04:34:35;5.13;;;1.17;;
6013;SDS011;3035;49.928;8.410;2023-05-10T04:37:03;17.40;;;1.83;;
6013;SDS011;3035;49.928;8.410;2023-05-10T04:39:31;1.60;;;1.50;;
6013;SDS011;3035;49.928;8.410;2023-05-10T04:42:00;1.67;;;1.30;;
6013;SDS011;3035;49.928;8.410;2023-05-10T04:44:28;1.30;;;1.20;;
6013;SDS011;3035;49.928;8.410;2023-05-10T04:46:56;3.27;;;1.43;;
6013;SDS011;3035;49.928;8.410;2023-05-10T04:49:24;3.53;;;1.40;;
6013;SDS011;3035;49.928;8.410;2023-05-10T04:51:53;5.00;;;1.43;;
6013;SDS011;3035;49.928;8.410;2023-05-10T04:54:21;2.70;;;1.50;;
6013;SDS011;3035;49.928;8.410;2023-05-10T04:56:49;2.10;;;1.40;;
6013;SDS011;3035;49.928;8.410;2023-05-10T04:59:18;7.60;;;1.60;;
6013;SDS011;3035;49.928;8.410;2023-05-10T05:01:46;5.60;;;1.50;;
6013;SDS011;3035;49.928;8.410;2023-05-10T05:04:14;3.00;;;1.77;;
6013;SDS011;3035;49.928;8.410;2023-05-10T05:06:42;5.00;;;2.13;;
6013;SDS011;3035;49.928;8.410;2023-05-10T05:09:11;7.03;;;2.37;;
6013;SDS011;3035;49.928;8.410;2023-05-10T05:11:40;5.50;;;1.83;;
6013;SDS011;3035;49.928;8.410;2023-05-10T05:14:09;3.70;;;2.20;;
6013;SDS011;3035;49.928;8.410;2023-05-10T05:16:37;2.33;;;1.70;;
6013;SDS011;3035;49.928;8.410;2023-05-10T05:19:06;3.43;;;1.63;;
6013;SDS011;3035;49.928;8.410;2023-05-10T05:21:34;4.90;;;1.63;;
6013;SDS011;3035;49.928;8.410;2023-05-10T05:24:02;3.97;;;2.13;;
6013;SDS011;3035;49.928;8.410;2023-05-10T05:26:32;2.80;;;2.10;;
6013;SDS011;3035;49.928;8.410;2023-05-10T05:29:00;9.50;;;2.00;;
6013;SDS011;3035;49.928;8.410;2023-05-10T05:31:29;4.33;;;1.83;;
6013;SDS011;3035;49.928;8.410;2023-05-10T05:33:57;5.17;;;1.93;;
6013;SDS011;3035;49.928;8.410;2023-05-10T05:36:25;4.30;;;1.83;;
6013;SDS011;3035;49.928;8.410;2023-05-10T05:38:54;2.23;;;2.03;;
6013;SDS011;3035;49.928;8.410;2023-05-10T05:41:23;30.20;;;2.20;;
6013;SDS011;3035;49.928;8.410;2023-05-10T05:43:52;5.80;;;2.20;;
6013;SDS011;3035;49.928;8.410;2023-05-10T05:46:20;8.20;;;2.23;;
6013;SDS011;3035;49.928;8.410;2023-05-10T05:48:48;3.10;;;2.43;;
6013;SDS011;3035;49.928;8.410;2023-05-10T05:51:16;11.83;;;2.47;;
6013;SDS011;3035;49.928;8.410;2023-05-10T05:53:44;8.83;;;2.07;;
6013;SDS011;3035;49.928;8.410;2023-05-10T05:56:13;2.33;;;2.13;;
6013;SDS011;3035;49.928;8.410;2023-05-10T05:58:43;9.20;;;2.57;;
6013;SDS011;3035;49.928;8.410;2023-05-10T06:01:11;2.33;;;1.60;;
6013;SDS011;3035;49.928;8.410;2023-05-10T06:03:39;4.70;;;2.17;;
6013;SDS011;3035;49.928;8.410;2023-05-10T06:06:08;1.93;;;1.63;;
6013;SDS011;3035;49.928;8.410;2023-05-10T06:08:37;3.57;;;2.00;;
6013;SDS011;3035;49.928;8.410;2023-05-10T06:11:05;5.53;;;2.07;;
6013;SDS011;3035;49.928;8.410;2023-05-10T06:13:35;2.07;;;1.87;;
6013;SDS011;3035;49.928;8.410;2023-05-10T06:16:03;3.53;;;2.00;;
6013;SDS011;3035;49.928;8.410;2023-05-10T06:18:32;2.40;;;1.50;;
6013;SDS011;3035;49.928;8.410;2023-05-10T06:21:00;10.17;;;2.40;;
6013;SDS011;3035;49.928;8.410;2023-05-10T06:23:29;10.70;;;2.27;;
6013;SDS011;3035;49.928;8.410;2023-05-10T06:25:58;2.50;;;1.80;;
6013;SDS011;3035;49.928;8.410;2023-05-10T06:28:26;9.43;;;2.47;;
6013;SDS011;3035;49.928;8.410;2023-05-10T06:30:55;8.20;;;2.40;;
6013;SDS011;3035;49.928;8.410;2023-05-10T06:33:24;8.30;;;2.70;;
6013;SDS011;3035;49.928;8.410;2023-05-10T06:35:52;21.07;;;2.87;;
6013;SDS011;3035;49.928;8.410;2023-05-10T06:38:21;6.03;;;2.23;;
6013;SDS011;3035;49.928;8.410;2023-05-10T06:40:49;5.00;;;2.33;;
6013;SDS011;3035;49.928;8.410;2023-05-10T06:43:17;3.57;;;2.37;;
6013;SDS011;3035;49.928;8.410;2023-05-10T06:45:45;11.77;;;2.40;;
6013;SDS011;3035;49.928;8.410;2023-05-10T06:48:14;11.00;;;2.00;;
6013;SDS011;3035;49.928;8.410;2023-05-10T06:50:42;5.90;;;3.00;;
6013;SDS011;3035;49.928;8.410;2023-05-10T06:53:10;4.20;;;2.20;;
6013;SDS011;3035;49.928;8.410;2023-05-10T06:55:39;2.77;;;1.63;;
6013;SDS011;3035;49.928;8.410;2023-05-10T06:58:07;7.30;;;2.70;;
6013;SDS011;3035;49.928;8.410;2023-05-10T07:00:36;5.40;;;2.00;;
6013;SDS011;3035;49.928;8.410;2023-05-10T07:03:04;6.20;;;2.10;;
6013;SDS011;3035;49.928;8.410;2023-05-10T07:05:32;3.90;;;2.03;;
6013;SDS011;3035;49.928;8.410;2023-05-10T07:08:01;7.77;;;2.30;;
6013;SDS011;3035;49.928;8.410;2023-05-10T07:10:30;7.40;;;2.40;;
6013;SDS011;3035;49.928;8.410;2023-05-10T07:12:59;11.60;;;2.60;;
6013;SDS011;3035;49.928;8.410;2023-05-10T07:15:27;4.90;;;2.30;;
6013;SDS011;3035;49.928;8.410;2023-05-10T07:17:56;2.70;;;2.50;;
6013;SDS011;3035;49.928;8.410;2023-05-10T07:20:24;5.47;;;2.27;;
6013;SDS011;3035;49.928;8.410;2023-05-10T07:22:52;6.73;;;3.00;;
6013;SDS011;3035;49.928;8.410;2023-05-10T07:25:21;6.43;;;2.97;;
6013;SDS011;3035;49.928;8.410;2023-05-10T07:27:49;10.60;;;3.03;;
6013;SDS011;3035;49.928;8.410;2023-05-10T07:30:18;4.30;;;2.37;;
6013;SDS011;3035;49.928;8.410;2023-05-10T07:32:46;5.43;;;2.33;;
6013;SDS011;3035;49.928;8.410;2023-05-10T07:35:15;8.47;;;2.10;;
6013;SDS011;3035;49.928;8.410;2023-05-10T07:37:43;4.73;;;2.07;;
6013;SDS011;3035;49.928;8.410;2023-05-10T07:40:11;5.27;;;2.23;;
6013;SDS011;3035;49.928;8.410;2023-05-10T07:42:39;3.30;;;2.20;;
6013;SDS011;3035;49.928;8.410;2023-05-10T07:45:08;3.27;;;2.23;;
6013;SDS011;3035;49.928;8.410;2023-05-10T07:47:37;4.53;;;1.73;;
6013;SDS011;3035;49.928;8.410;2023-05-10T07:50:06;5.93;;;2.27;;
6013;SDS011;3035;49.928;8.410;2023-05-10T07:52:36;4.60;;;2.20;;
6013;SDS011;3035;49.928;8.410;2023-05-10T07:55:04;3.30;;;1.50;;
6013;SDS011;3035;49.928;8.410;2023-05-10T07:57:34;5.40;;;1.90;;
6013;SDS011;3035;49.928;8.410;2023-05-10T08:00:02;3.00;;;1.80;;
6013;SDS011;3035;49.928;8.410;2023-05-10T08:02:32;9.50;;;2.37;;
6013;SDS011;3035;49.928;8.410;2023-05-10T08:05:00;3.83;;;2.13;;
6013;SDS011;3035;49.928;8.410;2023-05-10T08:07:29;2.80;;;1.80;;
6013;SDS011;3035;49.928;8.410;2023-05-10T08:09:58;2.30;;;1.80;;
6013;SDS011;3035;49.928;8.410;2023-05-10T08:12:27;4.20;;;1.80;;
6013;SDS011;3035;49.928;8.410;2023-05-10T08:14:55;9.27;;;1.70;;
6013;SDS011;3035;49.928;8.410;2023-05-10T08:17:24;3.43;;;1.67;;
6013;SDS011;3035;49.928;8.410;2023-05-10T08:19:52;2.27;;;1.90;;
6013;SDS011;3035;49.928;8.410;2023-05-10T08:22:20;2.67;;;1.83;;
6013;SDS011;3035;49.928;8.410;2023-05-10T08:24:49;3.20;;;2.10;;
6013;SDS011;3035;49.928;8.410;2023-05-10T08:27:18;5.50;;;1.70;;
6013;SDS011;3035;49.928;8.410;2023-05-10T08:29:46;3.03;;;1.93;;
6013;SDS011;3035;49.928;8.410;2023-05-10T08:32:15;3.37;;;1.70;;
6013;SDS011;3035;49.928;8.410;2023-05-10T08:34:43;3.20;;;1.80;;
6013;SDS011;3035;49.928;8.410;2023-05-10T08:37:12;2.07;;;1.50;;
6013;SDS011;3035;49.928;8.410;2023-05-10T08:39:40;2.80;;;1.80;;
6013;SDS011;3035;49.928;8.410;2023-05-10T08:42:09;2.03;;;1.70;;
6013;SDS011;3035;49.928;8.410;2023-05-10T08:44:38;5.97;;;1.93;;
6013;SDS011;3035;49.928;8.410;2023-05-10T08:47:06;2.50;;;2.00;;
6013;SDS011;3035;49.928;8.410;2023-05-10T08:49:35;1.83;;;1.73;;
6013;SDS011;3035;49.928;8.410;2023-05-10T08:52:03;1.90;;;1.80;;
6013;SDS011;3035;49.928;8.410;2023-05-10T08:54:32;4.63;;;1.90;;
6013;SDS011;3035;49.928;8.410;2023-05-10T08:57:00;2.70;;;1.67;;
6013;SDS011;3035;49.928;8.410;2023-05-10T08:59:29;1.87;;;1.70;;
6013;SDS011;3035;49.928;8.410;2023-05-10T09:01:57;3.27;;;1.80;;
6013;SDS011;3035;49.928;8.410;2023-05-10T09:04:26;3.57;;;2.13;;
6013;SDS011;3035;49.928;8.410;2023-05-10T09:06:54;2.93;;;1.90;;
6013;SDS011;3035;49.928;8.410;2023-05-10T09:09:23;6.13;;;2.30;;
6013;SDS011;3035;49.928;8.410;2023-05-10T09:11:52;4.27;;;1.70;;
6013;SDS011;3035;49.928;8.410;2023-05-10T09:14:20;5.50;;;1.90;;
6013;SDS011;3035;49.928;8.410;2023-05-10T09:16:49;3.40;;;1.90;;
6013;SDS011;3035;49.928;8.410;2023-05-10T09:19:17;2.60;;;1.33;;
6013;SDS011;3035;49.928;8.410;2023-05-10T09:21:47;2.50;;;1.00;;
6013;SDS011;3035;49.928;8.410;2023-05-10T09:24:15;3.13;;;1.10;;
6013;SDS011;3035;49.928;8.410;2023-05-10T09:26:46;1.10;;;0.97;;
6013;SDS011;3035;49.928;8.410;2023-05-10T09:29:15;2.07;;;1.10;;
6013;SDS011;3035;49.928;8.410;2023-05-10T09:31:45;1.40;;;1.20;;
6013;SDS011;3035;49.928;8.410;2023-05-10T09:34:19;5.60;;;1.07;;
6013;SDS011;3035;49.928;8.410;2023-05-10T09:36:51;2.60;;;1.00;;
6013;SDS011;3035;49.928;8.410;2023-05-10T09:39:20;2.67;;;1.23;;
6013;SDS011;3035;49.928;8.410;2023-05-10T09:42:05;5.10;;;1.10;;
6013;SDS011;3035;49.928;8.410;2023-05-10T09:44:33;1.80;;;0.87;;
6013;SDS011;3035;49.928;8.410;2023-05-10T09:47:01;13.83;;;1.10;;
6013;SDS011;3035;49.928;8.410;2023-05-10T09:49:29;1.93;;;1.13;;
6013;SDS011;3035;49.928;8.410;2023-05-10T09:52:01;1.50;;;1.07;;
6013;SDS011;3035;49.928;8.410;2023-05-10T09:54:31;4.50;;;1.20;;
6013;SDS011;3035;49.928;8.410;2023-05-10T09:56:59;1.50;;;1.10;;
6013;SDS011;3035;49.928;8.410;2023-05-10T09:59:27;1.50;;;1.20;;
6013;SDS011;3035;49.928;8.410;2023-05-10T10:01:56;1.57;;;0.90;;
6013;SDS011;3035;49.928;8.410;2023-05-10T10:04:25;1.80;;;1.00;;
6013;SDS011;3035;49.928;8.410;2023-05-10T10:07:00;2.80;;;0.93;;
6013;SDS011;3035;49.928;8.410;2023-05-10T10:09:28;2.33;;;0.90;;
6013;SDS011;3035;49.928;8.410;2023-05-10T10:11:56;4.30;;;0.90;;
6013;SDS011;3035;49.928;8.410;2023-05-10T10:14:25;2.13;;;1.00;;
6013;SDS011;3035;49.928;8.410;2023-05-10T10:16:53;1.83;;;1.00;;
6013;SDS011;3035;49.928;8.410;2023-05-10T10:19:22;3.33;;;1.13;;
6013;SDS011;3035;49.928;8.410;2023-05-10T10:21:50;7.63;;;1.20;;
6013;SDS011;3035;49.928;8.410;2023-05-10T10:24:19;1.37;;;0.93;;
6013;SDS011;3035;49.928;8.410;2023-05-10T10:26:47;2.47;;;1.10;;
6013;SDS011;3035;49.928;8.410;2023-05-10T10:29:19;4.83;;;1.10;;
6013;SDS011;3035;49.928;8.410;2023-05-10T10:32:09;1.27;;;1.10;;
6013;SDS011;3035;49.928;8.410;2023-05-10T10:34:49;3.50;;;1.10;;
6013;SDS011;3035;49.928;8.410;2023-05-10T10:37:18;1.87;;;1.00;;
6013;SDS011;3035;49.928;8.410;2023-05-10T10:39:48;1.37;;;1.10;;
6013;SDS011;3035;49.928;8.410;2023-05-10T10:42:37;1.27;;;0.90;;
6013;SDS011;3035;49.928;8.410;2023-05-10T10:44:44;1.73;;;1.10;;
6013;SDS011;3035;49.928;8.410;2023-05-10T10:47:21;6.63;;;1.20;;
6013;SDS011;3035;49.928;8.410;2023-05-10T10:49:52;2.80;;;1.60;;
6013;SDS011;3035;49.928;8.410;2023-05-10T10:52:25;2.10;;;1.10;;
6013;SDS011;3035;49.928;8.410;2023-05-10T10:55:10;1.73;;;0.90;;
6013;SDS011;3035;49.928;8.410;2023-05-10T10:57:44;1.20;;;0.90;;
6013;SDS011;3035;49.928;8.410;2023-05-10T11:02:51;3.03;;;1.00;;
6013;SDS011;3035;49.928;8.410;2023-05-10T11:05:23;1.87;;;1.20;;
6013;SDS011;3035;49.928;8.410;2023-05-10T11:08:11;8.17;;;0.93;;
6013;SDS011;3035;49.928;8.410;2023-05-10T11:10:49;0.90;;;0.80;;
6013;SDS011;3035;49.928;8.410;2023-05-10T11:13:26;2.47;;;0.90;;
6013;SDS011;3035;49.928;8.410;2023-05-10T11:21:26;1.67;;;0.77;;
6013;SDS011;3035;49.928;8.410;2023-05-10T11:23:55;3.13;;;0.80;;
6013;SDS011;3035;49.928;8.410;2023-05-10T11:26:23;1.20;;;0.70;;
6013;SDS011;3035;49.928;8.410;2023-05-10T11:28:51;1.50;;;1.00;;
6013;SDS011;3035;49.928;8.410;2023-05-10T11:31:23;3.33;;;1.10;;
6013;SDS011;3035;49.928;8.410;2023-05-10T11:33:52;2.07;;;1.03;;
6013;SDS011;3035;49.928;8.410;2023-05-10T11:36:20;1.50;;;0.87;;
6013;SDS011;3035;49.928;8.410;2023-05-10T11:38:48;1.20;;;0.87;;
6013;SDS011;3035;49.928;8.410;2023-05-10T11:41:16;1.40;;;0.90;;
6013;SDS011;3035;49.928;8.410;2023-05-10T11:43:46;1.87;;;1.13;;
6013;SDS011;3035;49.928;8.410;2023-05-10T11:46:13;2.47;;;1.23;;
6013;SDS011;3035;49.928;8.410;2023-05-10T11:48:42;1.63;;;1.20;;
6013;SDS011;3035;49.928;8.410;2023-05-10T11:51:10;1.00;;;0.80;;
6013;SDS011;3035;49.928;8.410;2023-05-10T11:53:38;2.63;;;1.10;;
6013;SDS011;3035;49.928;8.410;2023-05-10T11:56:08;1.30;;;0.90;;
6013;SDS011;3035;49.928;8.410;2023-05-10T11:58:36;2.00;;;1.67;;
6013;SDS011;3035;49.928;8.410;2023-05-10T12:01:05;2.10;;;1.00;;
6013;SDS011;3035;49.928;8.410;2023-05-10T12:03:33;2.77;;;1.20;;
6013;SDS011;3035;49.928;8.410;2023-05-10T12:06:01;5.93;;;1.50;;
6013;SDS011;3035;49.928;8.410;2023-05-10T12:08:29;1.50;;;1.00;;
6013;SDS011;3035;49.928;8.410;2023-05-10T12:11:04;1.73;;;0.97;;
6013;SDS011;3035;49.928;8.410;2023-05-10T12:13:37;2.97;;;0.93;;
6013;SDS011;3035;49.928;8.410;2023-05-10T12:16:12;1.47;;;0.70;;
6013;SDS011;3035;49.928;8.410;2023-05-10T12:18:56;6.07;;;0.90;;
6013;SDS011;3035;49.928;8.410;2023-05-10T12:21:24;1.53;;;1.07;;
6013;SDS011;3035;49.928;8.410;2023-05-10T12:23:54;1.40;;;0.80;;
6013;SDS011;3035;49.928;8.410;2023-05-10T12:26:22;2.13;;;0.90;;
6013;SDS011;3035;49.928;8.410;2023-05-10T12:28:50;9.17;;;0.97;;
6013;SDS011;3035;49.928;8.410;2023-05-10T12:31:18;1.10;;;0.90;;
6013;SDS011;3035;49.928;8.410;2023-05-10T12:33:47;1.47;;;0.90;;
6013;SDS011;3035;49.928;8.410;2023-05-10T12:36:16;2.90;;;1.00;;
6013;SDS011;3035;49.928;8.410;2023-05-10T12:38:45;2.00;;;0.90;;
6013;SDS011;3035;49.928;8.410;2023-05-10T12:41:15;1.50;;;1.07;;
6013;SDS011;3035;49.928;8.410;2023-05-10T12:43:43;1.20;;;0.90;;
6013;SDS011;3035;49.928;8.410;2023-05-10T12:46:13;2.13;;;1.00;;
6013;SDS011;3035;49.928;8.410;2023-05-10T12:48:41;3.50;;;1.47;;
6013;SDS011;3035;49.928;8.410;2023-05-10T12:51:10;1.30;;;0.87;;
6013;SDS011;3035;49.928;8.410;2023-05-10T12:53:39;1.60;;;1.00;;
6013;SDS011;3035;49.928;8.410;2023-05-10T12:56:07;3.43;;;0.87;;
6013;SDS011;3035;49.928;8.410;2023-05-10T12:58:36;2.40;;;1.10;;
6013;SDS011;3035;49.928;8.410;2023-05-10T13:01:04;2.73;;;0.90;;
6013;SDS011;3035;49.928;8.410;2023-05-10T13:03:33;1.53;;;0.90;;
6013;SDS011;3035;49.928;8.410;2023-05-10T13:06:01;2.30;;;1.00;;
6013;SDS011;3035;49.928;8.410;2023-05-10T13:08:30;2.53;;;0.90;;
6013;SDS011;3035;49.928;8.410;2023-05-10T13:10:59;3.13;;;1.30;;
6013;SDS011;3035;49.928;8.410;2023-05-10T13:13:27;2.47;;;1.10;;
6013;SDS011;3035;49.928;8.410;2023-05-10T13:15:56;3.40;;;1.17;;
6013;SDS011;3035;49.928;8.410;2023-05-10T13:18:24;1.40;;;1.10;;
6013;SDS011;3035;49.928;8.410;2023-05-10T13:20:53;3.20;;;1.10;;
6013;SDS011;3035;49.928;8.410;2023-05-10T13:23:21;2.50;;;0.97;;
6013;SDS011;3035;49.928;8.410;2023-05-10T13:25:49;1.80;;;0.93;;
6013;SDS011;3035;49.928;8.410;2023-05-10T13:28:18;4.73;;;1.00;;
6013;SDS011;3035;49.928;8.410;2023-05-10T13:30:46;2.30;;;1.07;;
6013;SDS011;3035;49.928;8.410;2023-05-10T13:33:14;14.07;;;2.03;;
6013;SDS011;3035;49.928;8.410;2023-05-10T13:35:43;6.50;;;1.23;;
6013;SDS011;3035;49.928;8.410;2023-05-10T13:38:12;3.63;;;1.00;;
6013;SDS011;3035;49.928;8.410;2023-05-10T13:40:41;5.73;;;1.03;;
6013;SDS011;3035;49.928;8.410;2023-05-10T13:43:09;7.73;;;1.13;;
6013;SDS011;3035;49.928;8.410;2023-05-10T13:45:37;6.80;;;1.20;;
6013;SDS011;3035;49.928;8.410;2023-05-10T13:48:05;1.67;;;1.10;;
6013;SDS011;3035;49.928;8.410;2023-05-10T13:50:33;10.13;;;1.17;;
6013;SDS011;3035;49.928;8.410;2023-05-10T13:53:02;2.17;;;1.10;;
6013;SDS011;3035;49.928;8.410;2023-05-10T13:55:30;2.17;;;1.00;;
6013;SDS011;3035;49.928;8.410;2023-05-10T13:57:59;1.70;;;1.10;;
6013;SDS011;3035;49.928;8.410;2023-05-10T14:00:27;4.30;;;1.00;;
6013;SDS011;3035;49.928;8.410;2023-05-10T14:02:55;2.60;;;1.20;;
6013;SDS011;3035;49.928;8.410;2023-05-10T14:05:24;2.00;;;1.37;;
6013;SDS011;3035;49.928;8.410;2023-05-10T14:07:52;4.63;;;1.17;;
6013;SDS011;3035;49.928;8.410;2023-05-10T14:10:20;11.70;;;1.10;;
6013;SDS011;3035;49.928;8.410;2023-05-10T14:12:50;5.87;;;1.50;;
6013;SDS011;3035;49.928;8.410;2023-05-10T14:15:18;5.70;;;1.50;;
6013;SDS011;3035;49.928;8.410;2023-05-10T14:17:47;1.80;;;1.20;;
6013;SDS011;3035;49.928;8.410;2023-05-10T14:20:15;3.90;;;1.23;;
6013;SDS011;3035;49.928;8.410;2023-05-10T14:22:44;1.37;;;0.90;;
6013;SDS011;3035;49.928;8.410;2023-05-10T14:25:13;1.53;;;1.10;;
6013;SDS011;3035;49.928;8.410;2023-05-10T14:27:41;2.60;;;0.90;;
6013;SDS011;3035;49.928;8.410;2023-05-10T14:30:10;2.30;;;1.07;;
6013;SDS011;3035;49.928;8.410;2023-05-10T14:32:39;2.83;;;0.90;;
6013;SDS011;3035;49.928;8.410;2023-05-10T14:35:08;2.43;;;1.10;;
6013;SDS011;3035;49.928;8.410;2023-05-10T14:37:38;2.60;;;1.10;;
6013;SDS011;3035;49.928;8.410;2023-05-10T14:40:06;6.53;;;1.30;;
6013;SDS011;3035;49.928;8.410;2023-05-10T14:42:35;12.60;;;1.40;;
6013;SDS011;3035;49.928;8.410;2023-05-10T14:45:03;1.97;;;1.10;;
6013;SDS011;3035;49.928;8.410;2023-05-10T14:47:33;1.83;;;0.93;;
6013;SDS011;3035;49.928;8.410;2023-05-10T14:50:01;7.10;;;1.00;;
6013;SDS011;3035;49.928;8.410;2023-05-10T14:52:29;1.33;;;0.80;;
6013;SDS011;3035;49.928;8.410;2023-05-10T14:54:58;3.10;;;1.07;;
6013;SDS011;3035;49.928;8.410;2023-05-10T14:57:26;3.90;;;1.23;;
6013;SDS011;3035;49.928;8.410;2023-05-10T14:59:55;2.23;;;1.27;;
6013;SDS011;3035;49.928;8.410;2023-05-10T15:02:23;1.93;;;0.97;;
6013;SDS011;3035;49.928;8.410;2023-05-10T15:04:51;3.50;;;1.03;;
6013;SDS011;3035;49.928;8.410;2023-05-10T15:07:21;2.20;;;0.97;;
6013;SDS011;3035;49.928;8.410;2023-05-10T15:09:50;2.90;;;1.10;;
6013;SDS011;3035;49.928;8.410;2023-05-10T15:12:18;2.70;;;1.23;;
6013;SDS011;3035;49.928;8.410;2023-05-10T15:14:47;4.53;;;1.20;;
6013;SDS011;3035;49.928;8.410;2023-05-10T15:17:15;3.37;;;1.37;;
6013;SDS011;3035;49.928;8.410;2023-05-10T15:19:43;2.37;;;1.10;;
6013;SDS011;3035;49.928;8.410;2023-05-10T15:22:13;3.60;;;1.20;;
6013;SDS011;3035;49.928;8.410;2023-05-10T15:24:41;1.67;;;1.10;;
6013;SDS011;3035;49.928;8.410;2023-05-10T15:27:10;3.70;;;1.07;;
6013;SDS011;3035;49.928;8.410;2023-05-10T15:29:39;7.43;;;1.27;;
6013;SDS011;3035;49.928;8.410;2023-05-10T15:32:07;9.47;;;1.40;;
6013;SDS011;3035;49.928;8.410;2023-05-10T15:34:36;10.50;;;1.10;;
6013;SDS011;3035;49.928;8.410;2023-05-10T15:37:05;2.03;;;1.20;;
6013;SDS011;3035;49.928;8.410;2023-05-10T15:39:33;3.97;;;1.20;;
6013;SDS011;3035;49.928;8.410;2023-05-10T15:42:01;3.23;;;1.20;;
6013;SDS011;3035;49.928;8.410;2023-05-10T15:44:30;3.20;;;0.90;;
6013;SDS011;3035;49.928;8.410;2023-05-10T15:46:58;1.93;;;1.17;;